createdAt,value
2022-08-30T00:02:09.511Z,39.45
2022-08-30T00:05:15.971Z,33.53
2022-08-30T00:08:15.225Z,38.00
2022-08-30T00:11:23.742Z,32.73
2022-08-30T00:14:30.245Z,30.90
2022-08-30T00:17:35.410Z,27.62
2022-08-30T00:20:43.569Z,30.43
2022-08-30T00:23:48.774Z,26.57
2022-08-30T00:26:53.867Z,23.55
2022-08-30T00:29:59.613Z,32.67
2022-08-30T00:32:58.097Z,35.10
2022-08-30T00:36:04.280Z,42.63
2022-08-30T00:39:10.346Z,29.70
2022-08-30T00:42:16.004Z,52.03
2022-08-30T00:45:38.470Z,27.55
2022-08-30T00:48:45.754Z,39.25
2022-08-30T00:51:51.253Z,27.60
2022-08-30T00:54:57.951Z,33.30
2022-08-30T00:58:04.284Z,28.27
2022-08-30T01:01:12.658Z,33.23
2022-08-30T01:04:22.187Z,33.35
2022-08-30T01:07:27.351Z,33.53
2022-08-30T01:10:34.184Z,28.05
2022-08-30T01:13:40.007Z,21.65
2022-08-30T01:16:46.535Z,35.33
2022-08-30T01:20:13.598Z,35.83
2022-08-30T01:23:28.143Z,30.40
2022-08-30T01:26:33.734Z,27.45
2022-08-30T01:29:33.123Z,32.58
2022-08-30T01:32:29.571Z,35.10
2022-08-30T01:35:24.967Z,26.52
2022-08-30T01:38:10.549Z,32.80
2022-08-30T01:41:19.787Z,38.00
2022-08-30T01:44:15.465Z,38.75
2022-08-30T01:47:13.915Z,32.55
2022-08-30T01:50:21.218Z,39.80
2022-08-30T01:53:21.393Z,30.88
2022-08-30T01:56:14.442Z,37.40
2022-08-30T01:59:21.085Z,25.92
2022-08-30T02:02:27.050Z,27.77
2022-08-30T02:05:33.597Z,43.92
2022-08-30T02:08:39.015Z,25.72
2022-08-30T02:11:44.495Z,27.95
2022-08-30T02:14:50.824Z,29.70
2022-08-30T02:17:56.698Z,43.98
2022-08-30T02:21:02.612Z,38.00
2022-08-30T02:24:08.612Z,32.13
2022-08-30T02:27:15.286Z,29.72
2022-08-30T02:30:22.715Z,31.55
2022-08-30T02:33:28.743Z,27.73
2022-08-30T02:36:35.492Z,32.05
2022-08-30T02:39:41.876Z,34.18
2022-08-30T02:42:48.411Z,37.65
2022-08-30T02:45:53.760Z,47.25
2022-08-30T02:49:13.040Z,30.70
2022-08-30T02:52:09.083Z,41.25
2022-08-30T02:55:07.566Z,29.00
2022-08-30T02:57:59.952Z,36.15
2022-08-30T03:01:05.795Z,39.57
2022-08-30T03:04:12.182Z,27.62
2022-08-30T03:07:18.915Z,37.42
2022-08-30T03:10:24.354Z,23.98
2022-08-30T03:13:30.261Z,35.98
2022-08-30T03:16:36.817Z,29.35
2022-08-30T03:19:43.149Z,28.83
2022-08-30T03:22:48.682Z,31.23
2022-08-30T03:25:54.229Z,48.92
2022-08-30T03:29:00.833Z,34.33
2022-08-30T03:32:07.162Z,38.20
2022-08-30T03:35:13.640Z,31.42
2022-08-30T03:38:20.391Z,34.35
2022-08-30T03:41:26.700Z,36.13
2022-08-30T03:44:32.227Z,65.32
2022-08-30T03:47:37.606Z,38.33
2022-08-30T03:50:44.929Z,43.83
2022-08-30T03:53:50.555Z,44.40
2022-08-30T03:56:57.444Z,43.98
2022-08-30T04:00:04.310Z,28.55
2022-08-30T04:03:13.752Z,26.02
2022-08-30T04:06:20.155Z,34.08
2022-08-30T04:09:26.759Z,39.10
2022-08-30T04:12:32.321Z,32.35
2022-08-30T04:15:38.720Z,37.73
2022-08-30T04:18:44.584Z,36.63
2022-08-30T04:21:49.888Z,37.10
2022-08-30T04:24:55.371Z,30.25
2022-08-30T04:28:02.847Z,48.98
2022-08-30T04:31:11.812Z,32.90
2022-08-30T04:34:18.823Z,41.10
2022-08-30T04:37:24.346Z,27.65
2022-08-30T04:40:31.184Z,44.30
2022-08-30T04:43:36.806Z,27.77
2022-08-30T04:46:37.286Z,31.35
2022-08-30T04:49:24.607Z,28.15
2022-08-30T04:52:17.899Z,53.25
2022-08-30T04:55:11.875Z,47.67
2022-08-30T04:58:17.501Z,53.63
2022-08-30T05:01:29.303Z,53.83
2022-08-30T05:04:35.484Z,50.35
2022-08-30T05:07:41.339Z,47.17
2022-08-30T05:10:47.959Z,58.00
2022-08-30T05:13:53.533Z,66.67
2022-08-30T05:16:58.802Z,68.30
2022-08-30T05:20:04.314Z,76.60
2022-08-30T05:23:10.540Z,100.45
2022-08-30T05:26:27.071Z,167.03
2022-08-30T05:29:26.718Z,281.63
2022-08-30T05:32:35.439Z,340.18
2022-08-30T05:35:43.316Z,419.05
2022-08-30T05:38:49.366Z,279.73
2022-08-30T05:41:56.006Z,355.73
2022-08-30T05:45:03.590Z,294.02
2022-08-30T05:48:09.212Z,245.07
2022-08-30T05:51:25.238Z,200.97
2022-08-30T05:54:30.651Z,185.05
2022-08-30T05:57:36.895Z,170.20
2022-08-30T06:00:44.687Z,173.00
2022-08-30T06:03:50.234Z,166.57
2022-08-30T06:06:58.532Z,147.93
2022-08-30T06:10:04.498Z,136.40
2022-08-30T06:13:13.764Z,145.80
2022-08-30T06:16:21.867Z,134.47
2022-08-30T06:19:27.435Z,128.23
2022-08-30T06:22:32.417Z,90.72
2022-08-30T06:25:41.888Z,48.50
2022-08-30T06:28:45.363Z,55.88
2022-08-30T06:31:52.130Z,49.08
2022-08-30T06:34:57.952Z,50.45
2022-08-30T06:38:04.111Z,49.25
2022-08-30T06:41:10.328Z,51.10
2022-08-30T06:44:16.668Z,51.18
2022-08-30T06:47:21.759Z,40.65
2022-08-30T06:50:20.714Z,46.80
2022-08-30T06:53:19.530Z,44.08
2022-08-30T06:56:27.798Z,51.55
2022-08-30T06:59:33.500Z,48.45
2022-08-30T07:02:39.047Z,54.55
2022-08-30T07:09:33.675Z,44.70
2022-08-30T07:12:40.564Z,33.58
2022-08-30T07:15:47.010Z,26.20
2022-08-30T07:18:58.293Z,49.35
2022-08-30T07:21:57.487Z,25.57
2022-08-30T07:24:50.023Z,25.15
2022-08-30T07:27:58.817Z,29.02
2022-08-30T07:31:04.384Z,20.33
2022-08-30T07:34:02.964Z,30.37
2022-08-30T07:37:08.088Z,28.40
2022-08-30T07:40:13.651Z,23.95
2022-08-30T07:43:19.414Z,30.90
2022-08-30T07:46:24.879Z,25.65
2022-08-30T07:49:29.971Z,23.70
2022-08-30T07:52:35.595Z,29.85
2022-08-30T07:55:41.270Z,22.10
2022-08-30T07:58:39.741Z,36.70
2022-08-30T08:01:33.476Z,28.20
2022-08-30T08:04:38.432Z,22.85
2022-08-30T08:07:43.965Z,30.35
2022-08-30T08:10:51.075Z,19.48
2022-08-30T08:14:00.321Z,23.77
2022-08-30T08:17:05.878Z,19.45
2022-08-30T08:20:13.083Z,19.10
2022-08-30T08:23:18.858Z,19.67
2022-08-30T08:26:25.053Z,24.43
2022-08-30T08:29:30.658Z,21.27
2022-08-30T08:32:36.015Z,16.15
2022-08-30T08:35:41.351Z,15.78
2022-08-30T08:38:46.575Z,13.78
2022-08-30T08:42:06.217Z,20.12
2022-08-30T08:45:21.428Z,12.80
2022-08-30T08:49:00.575Z,17.45
2022-08-30T08:52:21.125Z,15.00
2022-08-30T08:55:28.752Z,20.02
2022-08-30T08:58:42.111Z,22.15
2022-08-30T09:01:48.521Z,20.75
2022-08-30T09:04:54.546Z,17.98
2022-08-30T09:08:05.506Z,19.27
2022-08-30T09:11:22.176Z,13.35
2022-08-30T09:14:32.981Z,22.98
2022-08-30T09:17:39.912Z,17.85
2022-08-30T09:20:50.228Z,21.30
2022-08-30T09:24:06.001Z,17.50
2022-08-30T09:27:10.791Z,18.27
2022-08-30T09:30:27.178Z,16.57
2022-08-30T09:33:35.590Z,19.87
2022-08-30T09:36:44.011Z,23.80
2022-08-30T09:39:52.531Z,12.60
2022-08-30T09:43:06.813Z,17.05
2022-08-30T09:46:16.258Z,15.60
2022-08-30T09:49:25.612Z,9.48
2022-08-30T09:52:55.408Z,15.00
2022-08-30T09:56:10.798Z,16.17
2022-08-30T09:59:30.793Z,23.50
2022-08-30T10:03:06.660Z,14.58
2022-08-30T10:06:27.977Z,30.25
2022-08-30T10:09:41.221Z,13.00
2022-08-30T10:13:09.397Z,25.45
2022-08-30T10:16:45.312Z,21.00
2022-08-30T10:20:09.312Z,17.98
2022-08-30T10:23:27.949Z,19.02
2022-08-30T10:26:44.355Z,18.30
2022-08-30T10:30:06.495Z,19.40
2022-08-30T10:33:34.697Z,18.75
2022-08-30T10:36:46.715Z,15.60
2022-08-30T10:40:11.071Z,15.13
2022-08-30T10:43:22.590Z,11.25
2022-08-30T10:46:47.343Z,13.28
2022-08-30T10:50:00.611Z,20.05
2022-08-30T10:53:12.531Z,20.68
2022-08-30T10:56:26.569Z,19.00
2022-08-30T10:59:32.999Z,17.07
2022-08-30T11:02:51.771Z,16.55
2022-08-30T11:06:23.908Z,18.70
2022-08-30T11:09:39.799Z,17.25
2022-08-30T11:12:58.326Z,16.40
2022-08-30T11:16:27.280Z,14.35
2022-08-30T11:19:41.846Z,22.05
2022-08-30T11:22:51.445Z,15.43
2022-08-30T11:26:20.756Z,16.30
2022-08-30T11:29:20.492Z,15.68
2022-08-30T11:32:38.652Z,24.47
2022-08-30T11:36:01.267Z,22.37
2022-08-30T11:39:11.653Z,23.73
2022-08-30T11:46:11.390Z,10.72
2022-08-30T11:49:36.342Z,18.57
2022-08-30T11:53:20.813Z,16.57
2022-08-30T11:56:37.179Z,11.08
2022-08-30T12:00:15.878Z,17.42
2022-08-30T12:07:15.050Z,17.80
2022-08-30T12:10:20.517Z,12.03
2022-08-30T12:13:44.997Z,20.52
2022-08-30T12:17:17.820Z,15.93
2022-08-30T12:20:37.494Z,14.65
2022-08-30T12:24:08.124Z,18.48
2022-08-30T12:27:10.350Z,18.60
2022-08-30T12:30:20.896Z,11.78
2022-08-30T12:33:29.323Z,15.43
2022-08-30T12:36:51.134Z,17.07
2022-08-30T12:39:58.537Z,19.32
2022-08-30T12:43:14.557Z,22.42
2022-08-30T12:46:24.296Z,22.25
2022-08-30T12:49:32.588Z,18.23
2022-08-30T12:52:57.089Z,11.65
2022-08-30T12:56:21.249Z,18.05
2022-08-30T12:59:23.182Z,11.28
2022-08-30T13:02:34.152Z,18.52
2022-08-30T13:05:52.807Z,17.07
2022-08-30T13:09:03.594Z,13.13
2022-08-30T13:12:09.204Z,18.25
2022-08-30T13:15:32.834Z,13.20
2022-08-30T13:18:43.527Z,18.82
2022-08-30T13:21:50.257Z,13.18
2022-08-30T13:24:55.388Z,18.48
2022-08-30T13:28:01.552Z,19.07
2022-08-30T13:31:06.641Z,9.23
2022-08-30T13:34:12.197Z,15.58
2022-08-30T13:40:26.726Z,13.10
2022-08-30T13:44:08.892Z,17.40
2022-08-30T13:46:38.748Z,16.95
2022-08-30T13:49:49.907Z,29.02
2022-08-30T13:52:56.603Z,23.22
2022-08-30T13:56:02.170Z,18.48
2022-08-30T13:59:08.149Z,14.55
2022-08-30T14:02:13.329Z,15.13
2022-08-30T14:08:45.250Z,16.60
2022-08-30T14:11:35.550Z,17.20
2022-08-30T14:14:42.996Z,21.90
2022-08-30T14:17:47.142Z,14.10
2022-08-30T14:20:52.461Z,20.37
2022-08-30T14:23:58.407Z,9.25
2022-08-30T14:27:05.259Z,18.12
2022-08-30T14:30:11.945Z,27.60
2022-08-30T14:33:17.523Z,22.73
2022-08-30T14:36:23.222Z,19.90
2022-08-30T14:39:26.833Z,16.45
2022-08-30T14:42:26.516Z,18.82
2022-08-30T14:45:31.858Z,17.45
2022-08-30T14:48:37.357Z,12.78
2022-08-30T14:51:44.844Z,20.85
2022-08-30T14:54:54.247Z,17.23
2022-08-30T14:57:57.666Z,18.48
2022-08-30T15:01:07.252Z,83.85
2022-08-30T15:04:12.950Z,18.65
2022-08-30T15:07:18.307Z,20.35
2022-08-30T15:10:26.903Z,12.88
2022-08-30T15:13:32.544Z,22.87
2022-08-30T15:16:42.171Z,29.37
2022-08-30T15:19:47.425Z,18.55
2022-08-30T15:22:54.986Z,13.40
2022-08-30T15:26:01.436Z,24.27
2022-08-30T15:29:08.045Z,21.77
2022-08-30T15:32:13.406Z,14.18
2022-08-30T15:35:13.537Z,48.63
2022-08-30T15:38:19.643Z,29.02
2022-08-30T15:41:27.483Z,22.93
2022-08-30T15:44:34.443Z,22.10
2022-08-30T15:47:40.662Z,24.77
2022-08-30T15:50:46.276Z,18.75
2022-08-30T15:53:51.773Z,21.45
2022-08-30T15:57:00.231Z,36.77
2022-08-30T16:00:08.003Z,24.18
2022-08-30T16:03:14.686Z,25.23
2022-08-30T16:06:19.495Z,21.82
2022-08-30T16:09:25.817Z,35.23
2022-08-30T16:12:32.766Z,17.57
2022-08-30T16:15:37.905Z,21.52
2022-08-30T16:18:43.654Z,22.58
2022-08-30T16:21:51.301Z,21.40
2022-08-30T16:24:56.929Z,23.40
2022-08-30T16:28:02.047Z,35.30
2022-08-30T16:31:07.082Z,21.12
2022-08-30T16:34:14.088Z,22.48
2022-08-30T16:37:13.756Z,21.35
2022-08-30T16:43:24.659Z,16.07
2022-08-30T16:46:31.174Z,30.17
2022-08-30T16:49:38.114Z,19.12
2022-08-30T16:52:44.439Z,21.17
2022-08-30T16:55:51.671Z,21.68
2022-08-30T16:59:02.197Z,22.42
2022-08-30T17:02:05.606Z,16.25
2022-08-30T17:05:12.244Z,15.25
2022-08-30T17:08:13.964Z,23.02
2022-08-30T17:10:59.615Z,18.27
2022-08-30T17:13:52.504Z,18.27
2022-08-30T17:16:45.272Z,21.65
2022-08-30T17:22:56.700Z,13.32
2022-08-30T17:26:04.364Z,25.10
2022-08-30T17:29:10.867Z,20.43
2022-08-30T17:32:17.444Z,30.92
2022-08-30T17:35:23.707Z,84.60
2022-08-30T17:38:30.434Z,43.13
2022-08-30T17:41:36.760Z,52.60
2022-08-30T17:44:43.046Z,41.88
2022-08-30T17:47:48.792Z,34.43
2022-08-30T17:50:56.067Z,35.92
2022-08-30T17:54:02.715Z,29.45
2022-08-30T17:57:10.959Z,27.17
2022-08-30T18:00:17.867Z,29.75
2022-08-30T18:03:23.722Z,32.20
2022-08-30T18:06:29.431Z,38.00
2022-08-30T18:09:35.343Z,26.27
2022-08-30T18:12:42.518Z,22.93
2022-08-30T18:15:48.064Z,18.40
2022-08-30T18:18:57.177Z,31.30
2022-08-30T18:22:03.419Z,24.40
2022-08-30T18:25:09.812Z,21.35
2022-08-30T18:28:16.292Z,21.75
2022-08-30T18:31:24.567Z,22.65
2022-08-30T18:34:30.243Z,16.45
2022-08-30T18:37:35.664Z,17.70
2022-08-30T18:40:42.401Z,21.60
2022-08-30T18:43:48.875Z,25.32
2022-08-30T18:46:56.797Z,22.42
2022-08-30T18:49:55.351Z,20.55
2022-08-30T18:53:01.050Z,16.73
2022-08-30T18:56:07.960Z,19.92
2022-08-30T18:59:13.741Z,19.73
2022-08-30T19:02:22.019Z,18.75
2022-08-30T19:05:30.700Z,18.92
2022-08-30T19:08:38.082Z,23.25
2022-08-30T19:11:38.348Z,25.25
2022-08-30T19:14:44.826Z,19.98
2022-08-30T19:17:50.041Z,16.57
2022-08-30T19:20:57.423Z,11.88
2022-08-30T19:24:03.601Z,19.57
2022-08-30T19:27:10.378Z,17.52
2022-08-30T19:30:20.112Z,16.85
2022-08-30T19:33:23.772Z,21.85
2022-08-30T19:36:29.311Z,22.15
2022-08-30T19:39:34.354Z,19.12
2022-08-30T19:42:45.765Z,25.57
2022-08-30T19:45:46.289Z,41.55
2022-08-30T19:48:53.434Z,21.95
2022-08-30T19:51:59.023Z,18.48
2022-08-30T19:55:04.636Z,31.90
2022-08-30T19:58:11.509Z,21.40
2022-08-30T20:01:33.654Z,22.93
2022-08-30T20:04:25.177Z,14.35
2022-08-30T20:07:27.495Z,19.52
2022-08-30T20:10:31.711Z,16.52
2022-08-30T20:13:37.405Z,20.65
2022-08-30T20:16:43.875Z,15.60
2022-08-30T20:19:52.710Z,15.68
2022-08-30T20:22:58.326Z,15.18
2022-08-30T20:26:03.941Z,23.60
2022-08-30T20:29:09.545Z,22.45
2022-08-30T20:32:15.408Z,12.85
2022-08-30T20:35:22.951Z,11.73
2022-08-30T20:38:28.747Z,18.73
2022-08-30T20:41:36.291Z,18.67
2022-08-30T20:44:41.620Z,20.40
2022-08-30T20:47:48.286Z,21.55
2022-08-30T20:50:54.207Z,18.45
2022-08-30T20:54:01.778Z,26.10
2022-08-30T20:57:08.124Z,18.15
2022-08-30T21:00:16.081Z,21.25
2022-08-30T21:03:27.262Z,12.40
2022-08-30T21:06:30.404Z,19.42
2022-08-30T21:09:37.137Z,17.37
2022-08-30T21:12:44.879Z,11.78
2022-08-30T21:15:53.276Z,15.90
2022-08-30T21:19:00.583Z,14.33
2022-08-30T21:22:07.014Z,19.00
2022-08-30T21:25:11.739Z,14.25
2022-08-30T21:28:18.582Z,16.25
2022-08-30T21:31:27.115Z,20.00
2022-08-30T21:34:32.611Z,12.35
2022-08-30T21:37:38.164Z,14.13
2022-08-30T21:40:38.177Z,32.63
2022-08-30T21:46:42.207Z,19.27
2022-08-30T21:49:47.782Z,20.35
2022-08-30T21:52:54.118Z,26.02
2022-08-30T21:56:01.608Z,27.37
2022-08-30T21:59:07.581Z,23.50
2022-08-30T22:02:12.217Z,29.32
2022-08-30T22:05:18.308Z,30.20
2022-08-30T22:08:24.697Z,23.90
2022-08-30T22:11:32.970Z,20.48
2022-08-30T22:14:38.118Z,17.92
2022-08-30T22:17:44.810Z,29.82
2022-08-30T22:20:50.705Z,26.07
2022-08-30T22:23:56.518Z,26.00
2022-08-30T22:27:02.113Z,18.07
2022-08-30T22:30:07.619Z,26.52
2022-08-30T22:33:12.866Z,24.98
2022-08-30T22:36:32.537Z,24.55
2022-08-30T22:39:36.523Z,24.57
2022-08-30T22:42:35.788Z,16.67
2022-08-30T22:45:43.079Z,24.52
2022-08-30T22:48:51.283Z,18.45
2022-08-30T22:51:56.435Z,18.85
2022-08-30T22:55:01.232Z,29.25
2022-08-30T22:58:07.778Z,34.03
2022-08-30T23:01:14.407Z,18.02
2022-08-30T23:04:21.213Z,19.62
2022-08-30T23:07:27.754Z,20.60
2022-08-30T23:10:35.347Z,27.48
2022-08-30T23:13:41.261Z,18.17
2022-08-30T23:16:46.624Z,17.07
2022-08-30T23:19:51.739Z,16.82
2022-08-30T23:23:07.500Z,17.85
2022-08-30T23:26:32.746Z,18.82
2022-08-30T23:29:56.246Z,14.53
2022-08-30T23:33:20.024Z,11.90
2022-08-30T23:36:45.367Z,21.65
2022-08-30T23:40:07.981Z,17.52
2022-08-30T23:43:30.725Z,14.93
2022-08-30T23:46:54.680Z,19.20
2022-08-30T23:50:18.812Z,17.45
2022-08-30T23:53:43.683Z,18.37
2022-08-30T23:57:07.595Z,18.48
